Thunderstorms From: 23-05-2018 15:04 Until: 24-05-2018 15:00 warning for: Thunderstorms Level: Yellow info button

Although rather usual in this region, locally or potentially dangerous phenomena are expected. (such as local winds, summer thunderstorms, rising streams or high waves) Be aware and pay attention to the latest weather updates, especially if you carry out activities exposed to weather or close to a stream or shoreline. 


Meteo18 Weather Cam more information Meteo18 Weather Cam


warning for Thunderstorms more information blitzortung!


Rain radar more information rain snow radar


Visit our other weather sites:

Template documentation
and downloads

And another site



Weather Underground History page Text

Daily Summary for January 19, 2018 Units:  Metric    English   Both
« Previous Day
Next Day »
Daily Weekly Monthly Yearly Custom
  High: Low: Average:
Temperature: -17.8 °C -16.2 °C -14.8 °C
Dew Point: -17.8 °C -17.1 °C -15.8 °C
Humidity: Humidity % 80 % 88 %
Wind Speed: 0 km/h 0 km/h 11.9 km/h
Wind Gust: 0 km/h - -
Wind:- - West
Pressure: 0 hPa 34293.4 hPa -
Precipitation: 58.42 mm    
Historical Graphs
 
 
Tabular Data for January 19, 2018
Time Temperature Dew Point Pressure Wind Wind Speed Wind Gust Humidity Rainfall Rate (Hourly)
-17.8 °C -17.8 °C 0 hPa Calm     Humidity % 0 mm
00:03 -12.7 °C -13.9 °C 34293.4 hPa WSW 15.6 km/h 33.6 km/h 86 % 0 mm
00:09 -12.7 °C -13.9 °C 34293.4 hPa SW 31.4 km/h 36.2 km/h 86 % 0 mm
00:15 -12.8 °C -13.9 °C 34293.4 hPa WSW 10.3 km/h 33.6 km/h 87 % 0 mm
00:21 -12.8 °C -13.9 °C 34293.4 hPa West 36.5 km/h 38.8 km/h 88 % 0 mm
00:27 -12.8 °C -13.9 °C 34293.4 hPa WSW 20.9 km/h 33.6 km/h 87 % 0 mm
00:33 -12.8 °C -13.9 °C 34293.4 hPa WSW 26.2 km/h 36.2 km/h 87 % 0 mm
00:39 -12.9 °C -14 °C 34303.6 hPa WNW 23 km/h 33.6 km/h 87 % 0 mm
00:45 -12.9 °C -14 °C 34303.6 hPa SSW 7.6 km/h 36.2 km/h 87 % 0 mm
00:51 -12.9 °C -14 °C 34303.6 hPa West 38.8 km/h 51.8 km/h 88 % 0 mm
00:57 -13 °C -14.1 °C 34303.6 hPa NW 17.9 km/h 25.9 km/h 88 % 0 mm
01:03 -13.4 °C -14.8 °C 34313.7 hPa WNW 15.6 km/h 64.7 km/h 85 % 7.62 mm
01:09 -13.8 °C -15 °C 34313.7 hPa WNW 26.2 km/h 49.2 km/h 86 % 7.62 mm
01:15 -13.9 °C -15 °C 34313.7 hPa WNW 33.6 km/h 36.2 km/h 87 % 7.62 mm
01:21 -13.8 °C -14.9 °C 34303.6 hPa West 23 km/h 23.3 km/h 87 % 12.7 mm
01:27 -13.8 °C -14.9 °C 34303.6 hPa WNW 12.7 km/h 23.3 km/h 87 % 12.7 mm
01:33 -13.8 °C -15.1 °C 34303.6 hPa West 17.9 km/h 28.5 km/h 86 % 12.7 mm
01:39 -13.8 °C -15.1 °C 34303.6 hPa West 15.6 km/h 28.5 km/h 86 % 12.7 mm
01:45 -13.8 °C -15.2 °C 34313.7 hPa WNW 28.5 km/h 33.6 km/h 85 % 12.7 mm
01:51 -13.8 °C -15.2 °C 34313.7 hPa WSW 26.2 km/h 36.2 km/h 84 % 12.7 mm
01:57 -13.8 °C -15.2 °C 34313.7 hPa WNW 12.7 km/h 36.2 km/h 84 % 12.7 mm
02:03 -13.8 °C -15.1 °C 34313.7 hPa West 7.6 km/h 23.3 km/h 85 % 7.62 mm
02:09 -13.8 °C -15.2 °C 34313.7 hPa West 23 km/h 25.9 km/h 85 % 7.62 mm
02:15 -13.8 °C -15.2 °C 34327.3 hPa WNW 12.7 km/h 28.5 km/h 85 % 7.62 mm
02:21 -13.8 °C -15.1 °C 34327.3 hPa WNW 10.3 km/h 20.8 km/h 86 % 0 mm
02:27 -13.8 °C -15.2 °C 34327.3 hPa West 15.6 km/h 23.3 km/h 85 % 0 mm
02:33 -13.8 °C -15.2 °C 34327.3 hPa WNW 10.3 km/h 18.2 km/h 85 % 0 mm
02:39 -13.8 °C -15.1 °C 34327.3 hPa West 5.1 km/h 23.3 km/h 86 % 0 mm
02:45 -13.8 °C -15.1 °C 34337.4 hPa WNW 15.6 km/h 20.8 km/h 86 % 0 mm
02:51 -13.9 °C -15 °C 34337.4 hPa West 10.3 km/h 20.8 km/h 87 % 0 mm
02:57 -13.9 °C -15.1 °C 34337.4 hPa NW 7.6 km/h 20.8 km/h 87 % 0 mm
03:03 -13.9 °C -15.1 °C 34337.4 hPa West 5.1 km/h 12.9 km/h 87 % 0 mm
03:09 -13.9 °C -15.1 °C 34347.6 hPa WNW 17.9 km/h 18.2 km/h 87 % 0 mm
03:15 -14 °C -15.1 °C 34347.6 hPa West 7.6 km/h 12.9 km/h 87 % 0 mm
03:21 -14 °C -15.2 °C 34347.6 hPa WNW 15.6 km/h 20.8 km/h 86 % 0 mm
03:27 -13.9 °C -15.2 °C 34347.6 hPa West 10.3 km/h 20.8 km/h 86 % 0 mm
03:33 -14 °C -15.2 °C 34347.6 hPa West 7.6 km/h 20.8 km/h 86 % 0 mm
03:39 -14 °C -15.2 °C 34347.6 hPa WSW 7.6 km/h 10.3 km/h 86 % 0 mm
03:45 -14.1 °C -15.2 °C 34361.1 hPa West 26.2 km/h 26.2 km/h 87 % 0 mm
03:51 -14.4 °C -15.6 °C 34347.6 hPa WNW 15.6 km/h 31.1 km/h 86 % 7.62 mm
03:57 -14.5 °C -15.5 °C 34347.6 hPa West 10.3 km/h 23.3 km/h 88 % 12.7 mm
04:03 -14.5 °C -15.4 °C 34347.6 hPa WSW 5.1 km/h 10.3 km/h 89 % 12.7 mm
04:09 -14.5 °C -15.3 °C 34347.6 hPa WSW 12.7 km/h 12.9 km/h 90 % 12.7 mm
04:15 -14.3 °C -15.2 °C 34347.6 hPa West 20.9 km/h 23.3 km/h 90 % 12.7 mm
04:21 -14.3 °C -15.2 °C 34347.6 hPa West 20.9 km/h 20.9 km/h 89 % 12.7 mm
04:27 -14.2 °C -15.2 °C 34347.6 hPa West 5.1 km/h 18.2 km/h 89 % 12.7 mm
04:33 -14.3 °C -15.2 °C 34347.6 hPa WNW 10.3 km/h 18.2 km/h 89 % 12.7 mm
04:39 -14.3 °C -15.2 °C 34347.6 hPa North 5.1 km/h 15.6 km/h 90 % 12.7 mm
04:45 -14.3 °C -15.2 °C 34347.6 hPa West 7.6 km/h 15.6 km/h 90 % 12.7 mm
04:52 -14.4 °C -15.3 °C 34361.1 hPa WNW 7.6 km/h 10.3 km/h 89 % 12.7 mm
04:58 -14.4 °C -15.3 °C 34361.1 hPa West 5.1 km/h 12.9 km/h 90 % 0 mm
05:04 -14.4 °C -15.3 °C 34361.1 hPa WNW 7.6 km/h 25.9 km/h 89 % 0 mm
05:10 -14.4 °C -15.3 °C 34361.1 hPa West 10.3 km/h 18.2 km/h 89 % 0 mm
05:16 -14.4 °C -15.4 °C 34361.1 hPa West 7.6 km/h 31.1 km/h 88 % 0 mm
05:22 -14.4 °C -15.4 °C 34361.1 hPa West 17.9 km/h 18.2 km/h 89 % 0 mm
05:28 -14.4 °C -15.4 °C 34361.1 hPa West 12.7 km/h 20.8 km/h 89 % 0 mm
05:34 -14.5 °C -15.4 °C 34361.1 hPa West 10.3 km/h 18.2 km/h 89 % 0 mm
05:40 -14.6 °C -15.5 °C 34361.1 hPa West 10.3 km/h 25.9 km/h 89 % 0 mm
05:46 -14.6 °C -15.5 °C 34361.1 hPa West 17.9 km/h 18.2 km/h 89 % 0 mm
05:52 -14.6 °C -15.6 °C 34361.1 hPa WNW 12.7 km/h 23.3 km/h 89 % 0 mm
05:58 -14.6 °C -15.6 °C 34361.1 hPa West 10.3 km/h 12.9 km/h 88 % 0 mm
06:04 -14.6 °C -15.6 °C 34371.3 hPa WNW 10.3 km/h 18.2 km/h 89 % 0 mm
06:10 -14.6 °C -15.6 °C 34371.3 hPa WNW 12.7 km/h 18.2 km/h 89 % 0 mm
06:16 -14.6 °C -15.6 °C 34371.3 hPa WSW 20.9 km/h 20.9 km/h 89 % 0 mm
06:22 -14.6 °C -15.6 °C 34371.3 hPa West 7.6 km/h 12.9 km/h 89 % 0 mm
06:28 -14.6 °C -15.6 °C 34371.3 hPa West 7.6 km/h 18.2 km/h 89 % 0 mm
06:34 -14.7 °C -15.5 °C 34371.3 hPa West 7.6 km/h 15.6 km/h 90 % 0 mm
06:40 -14.7 °C -15.5 °C 34371.3 hPa WSW 17.9 km/h 25.9 km/h 90 % 0 mm
06:46 -14.7 °C -15.5 °C 34371.3 hPa WNW 12.7 km/h 25.9 km/h 90 % 0 mm
06:52 -14.8 °C -15.6 °C 34371.3 hPa West 10.3 km/h 15.6 km/h 90 % 0 mm
06:58 -14.8 °C -15.6 °C 34371.3 hPa West 20.9 km/h 20.9 km/h 90 % 0 mm
07:04 -14.8 °C -15.7 °C 34371.3 hPa West 5.1 km/h 15.6 km/h 90 % 0 mm
07:10 -14.8 °C -15.7 °C 34371.3 hPa West 15.6 km/h 25.9 km/h 90 % 0 mm
07:16 -14.9 °C -15.7 °C 34371.3 hPa West 23 km/h 23.3 km/h 90 % 0 mm
07:22 -14.9 °C -15.7 °C 34371.3 hPa WNW 10.3 km/h 20.8 km/h 91 % 0 mm
07:28 -15 °C -15.7 °C 34371.3 hPa West 10.3 km/h 18.2 km/h 91 % 0 mm
07:34 -15.1 °C -15.8 °C 34384.8 hPa West 7.6 km/h 12.9 km/h 91 % 0 mm
07:40 -15.1 °C -15.8 °C 34384.8 hPa WSW 12.7 km/h 15.6 km/h 91 % 0 mm
07:46 -15.2 °C -15.9 °C 34384.8 hPa West 10.3 km/h 12.9 km/h 92 % 0 mm
07:52 -15.3 °C -16 °C 34384.8 hPa WSW 5.1 km/h 12.9 km/h 92 % 0 mm
07:58 -15.4 °C -16.1 °C 34384.8 hPa West 2.3 km/h 10.3 km/h 92 % 0 mm
08:04 -15.4 °C -16.1 °C 34384.8 hPa West 7.6 km/h 7.7 km/h 92 % 0 mm
08:10 -15.4 °C -16.1 °C 34384.8 hPa West 7.6 km/h 10.3 km/h 92 % 0 mm
08:16 -15.5 °C -16.1 °C 34384.8 hPa WSW 2.3 km/h 7.7 km/h 93 % 0 mm
08:22 -15.6 °C -16.2 °C 34384.8 hPa SW 5.1 km/h 7.7 km/h 93 % 0 mm
08:28 -15.7 °C -16.2 °C 34384.8 hPa SSW 5.1 km/h 12.9 km/h 93 % 0 mm
08:34 -15.8 °C -16.3 °C 34384.8 hPa WSW 2.3 km/h 7.7 km/h 94 % 0 mm
08:40 -15.8 °C -16.3 °C 34384.8 hPa WSW 5.1 km/h 7.7 km/h 94 % 0 mm
08:46 -15.8 °C -16.3 °C 34395 hPa WSW 7.6 km/h 10.3 km/h 94 % 0 mm
08:52 -15.8 °C -16.3 °C 34395 hPa WSW 5.1 km/h 7.7 km/h 94 % 0 mm
08:58 -15.7 °C -16.1 °C 34395 hPa WSW 2.3 km/h 10.3 km/h 95 % 0 mm
09:04 -15.7 °C -16.2 °C 34395 hPa WSW 2.3 km/h 7.7 km/h 94 % 0 mm
09:10 -15.7 °C -16.2 °C 34405.1 hPa WSW 2.3 km/h 7.7 km/h 94 % 0 mm
09:16 -15.7 °C -16.1 °C 34405.1 hPa WSW 2.3 km/h 10.3 km/h 95 % 0 mm
09:22 -15.7 °C -16.1 °C 34405.1 hPa WSW 10.3 km/h 10.3 km/h 95 % 0 mm
09:28 -15.7 °C -16.1 °C 34405.1 hPa WSW 10.3 km/h 12.9 km/h 95 % 0 mm
09:34 -15.7 °C -16.1 °C 34395 hPa SW 7.6 km/h 12.9 km/h 95 % 0 mm
09:40 -15.6 °C -16 °C 34405.1 hPa SW 12.7 km/h 15.6 km/h 95 % 0 mm
09:46 -15.6 °C -15.9 °C 34405.1 hPa SW 12.7 km/h 20.8 km/h 95 % 0 mm
09:52 -15.5 °C -15.9 °C 34405.1 hPa SW 12.7 km/h 31.1 km/h 95 % 0 mm
09:58 -15.4 °C -15.9 °C 34405.1 hPa SW 7.6 km/h 18.2 km/h 94 % 0 mm
10:04 -15.4 °C -15.9 °C 34405.1 hPa SW 15.6 km/h 25.9 km/h 94 % 0 mm
10:10 -15.4 °C -15.9 °C 34405.1 hPa SW 5.1 km/h 28.5 km/h 94 % 0 mm
10:16 -15.4 °C -15.9 °C 34405.1 hPa SW 26.2 km/h 28.5 km/h 94 % 0 mm
10:22 -15.4 °C -15.9 °C 34405.1 hPa WSW 12.7 km/h 36.2 km/h 94 % 0 mm
10:28 -15.4 °C -15.9 °C 34405.1 hPa West 23 km/h 31.1 km/h 94 % 0 mm
10:34 -15.3 °C -15.8 °C 34405.1 hPa WSW 20.9 km/h 31.1 km/h 94 % 0 mm
10:40 -15.3 °C -15.8 °C 34405.1 hPa SW 17.9 km/h 23.3 km/h 94 % 0 mm
10:46 -15.2 °C -15.7 °C 34405.1 hPa West 12.7 km/h 25.9 km/h 94 % 0 mm
10:52 -15.2 °C -15.7 °C 34405.1 hPa WSW 10.3 km/h 23.3 km/h 93 % 0 mm
10:58 -15.2 °C -15.7 °C 34405.1 hPa WSW 12.7 km/h 31.1 km/h 93 % 0 mm
11:04 -15.1 °C -15.7 °C 34405.1 hPa SW 15.6 km/h 38.8 km/h 93 % 0 mm
11:10 -15.1 °C -15.6 °C 34405.1 hPa WSW 15.6 km/h 28.5 km/h 93 % 0 mm
11:16 -14.9 °C -15.5 °C 34405.1 hPa WSW 12.7 km/h 20.8 km/h 93 % 0 mm
11:22 -14.9 °C -15.6 °C 34405.1 hPa WSW 20.9 km/h 31.1 km/h 92 % 0 mm
11:28 -14.9 °C -15.7 °C 34405.1 hPa WSW 15.6 km/h 31.1 km/h 91 % 0 mm
11:35 -14.9 °C -15.6 °C 34418.7 hPa West 10.3 km/h 15.6 km/h 92 % 0 mm
11:41 -14.8 °C -15.6 °C 34418.7 hPa WSW 12.7 km/h 15.6 km/h 91 % 0 mm
11:47 -14.8 °C -15.6 °C 34418.7 hPa SW 17.9 km/h 25.9 km/h 91 % 0 mm
11:53 -14.8 °C -15.6 °C 34405.1 hPa SW 5.1 km/h 25.9 km/h 91 % 0 mm
11:59 -14.8 °C -15.6 °C 34405.1 hPa WNW 2.3 km/h 15.6 km/h 91 % 0 mm
12:05 -14.8 °C -15.6 °C 34405.1 hPa West 2.3 km/h 25.9 km/h 90 % 0 mm
12:11 -14.8 °C -15.6 °C 34405.1 hPa WSW 5.1 km/h 20.8 km/h 90 % 0 mm
12:17 -14.7 °C -15.6 °C 34405.1 hPa WSW 7.6 km/h 18.2 km/h 90 % 0 mm
12:23 -14.7 °C -15.6 °C 34405.1 hPa West 5.1 km/h 23.3 km/h 90 % 0 mm
12:29 -14.7 °C -15.5 °C 34405.1 hPa WSW 12.7 km/h 15.6 km/h 90 % 0 mm
12:35 -14.7 °C -15.5 °C 34405.1 hPa WSW 10.3 km/h 23.3 km/h 90 % 0 mm
12:41 -14.7 °C -15.4 °C 34405.1 hPa WSW 12.7 km/h 12.9 km/h 91 % 0 mm
12:47 -14.7 °C -15.4 °C 34405.1 hPa WSW 15.6 km/h 20.8 km/h 91 % 0 mm
12:53 -14.7 °C -15.5 °C 34405.1 hPa WNW 15.6 km/h 20.8 km/h 91 % 7.62 mm
12:59 -14.7 °C -15.5 °C 34405.1 hPa WNW 28.5 km/h 31.1 km/h 91 % 12.7 mm
13:05 -14.8 °C -15.7 °C 34395 hPa West 15.6 km/h 28.5 km/h 89 % 12.7 mm
13:11 -14.8 °C -15.6 °C 34395 hPa West 7.6 km/h 15.6 km/h 90 % 12.7 mm
13:17 -14.8 °C -15.4 °C 34395 hPa SW 12.7 km/h 23.3 km/h 92 % 12.7 mm
13:23 -14.8 °C -15.6 °C 34395 hPa West 15.6 km/h 28.5 km/h 91 % 20.32 mm
13:29 -14.8 °C -15.6 °C 34395 hPa West 17.9 km/h 23.3 km/h 91 % 20.32 mm
13:35 -14.8 °C -15.8 °C 34384.8 hPa West 23 km/h 33.6 km/h 88 % 20.32 mm
13:41 -14.8 °C -15.8 °C 34395 hPa West 23 km/h 33.6 km/h 88 % 25.4 mm
13:47 -14.8 °C -15.8 °C 34395 hPa West 17.9 km/h 23.3 km/h 89 % 25.4 mm
13:53 -14.9 °C -15.8 °C 34384.8 hPa WSW 20.9 km/h 31.1 km/h 89 % 25.4 mm
13:59 -14.9 °C -15.7 °C 34384.8 hPa WNW 26.2 km/h 28.5 km/h 90 % 20.32 mm
14:05 -14.9 °C -15.7 °C 34384.8 hPa West 10.3 km/h 25.9 km/h 90 % 12.7 mm
14:11 -14.8 °C -15.7 °C 34384.8 hPa WSW 12.7 km/h 31.1 km/h 90 % 12.7 mm
14:17 -14.7 °C -15.6 °C 34371.3 hPa West 15.6 km/h 28.5 km/h 90 % 12.7 mm
14:23 -14.6 °C -15.4 °C 34371.3 hPa WSW 15.6 km/h 23.3 km/h 90 % 12.7 mm
14:29 -14.6 °C -15.6 °C 34371.3 hPa West 23 km/h 38.8 km/h 88 % 12.7 mm
14:35 -14.6 °C -15.6 °C 34371.3 hPa West 20.9 km/h 38.8 km/h 88 % 12.7 mm
14:41 -14.6 °C -15.5 °C 34371.3 hPa WSW 26.2 km/h 31.1 km/h 89 % 7.62 mm
14:47 -14.4 °C -15.4 °C 34371.3 hPa West 7.6 km/h 20.8 km/h 89 % 7.62 mm
14:53 -14.4 °C -15.4 °C 34371.3 hPa West 10.3 km/h 23.3 km/h 89 % 0 mm
14:59 -14.4 °C -15.4 °C 34371.3 hPa West 15.6 km/h 23.3 km/h 88 % 0 mm
15:05 -14.4 °C -15.4 °C 34384.8 hPa SW 20.9 km/h 31.1 km/h 88 % 0 mm
15:11 -14.4 °C -15.6 °C 34384.8 hPa WNW 23 km/h 31.1 km/h 87 % 0 mm
15:17 -14.4 °C -15.6 °C 34384.8 hPa WNW 17.9 km/h 18.2 km/h 87 % 0 mm
15:23 -14.4 °C -15.5 °C 34384.8 hPa West 7.6 km/h 18.2 km/h 87 % 0 mm
15:29 -14.4 °C -15.5 °C 34371.3 hPa WNW 20.9 km/h 23.3 km/h 87 % 0 mm
15:35 -14.3 °C -15.5 °C 34371.3 hPa West 17.9 km/h 23.3 km/h 86 % 0 mm
15:41 -14.2 °C -15.5 °C 34371.3 hPa West 10.3 km/h 33.6 km/h 85 % 0 mm
15:47 -14.2 °C -15.4 °C 34371.3 hPa West 10.3 km/h 23.3 km/h 85 % 0 mm
15:53 -14.1 °C -15.5 °C 34384.8 hPa WSW 20.9 km/h 23.3 km/h 84 % 0 mm
15:59 -14.1 °C -15.6 °C 34371.3 hPa West 7.6 km/h 20.8 km/h 83 % 0 mm
16:05 -14.1 °C -15.6 °C 34384.8 hPa West 17.9 km/h 18.2 km/h 83 % 0 mm
16:11 -14 °C -15.6 °C 34371.3 hPa WNW 20.9 km/h 25.9 km/h 82 % 0 mm
16:17 -13.9 °C -15.6 °C 34371.3 hPa West 12.7 km/h 18.2 km/h 82 % 0 mm
16:23 -13.9 °C -15.6 °C 34371.3 hPa West 15.6 km/h 20.8 km/h 81 % 0 mm
16:29 -13.9 °C -15.6 °C 34371.3 hPa West 12.7 km/h 28.5 km/h 81 % 0 mm
16:35 -14 °C -15.8 °C 34384.8 hPa WNW 23 km/h 31.1 km/h 80 % 0 mm
16:41 -14 °C -15.6 °C 34384.8 hPa WNW 15.6 km/h 20.8 km/h 82 % 0 mm
16:47 -14.1 °C -15.7 °C 34384.8 hPa West 10.3 km/h 20.8 km/h 82 % 0 mm
16:53 -14.1 °C -15.7 °C 34384.8 hPa West 7.6 km/h 23.3 km/h 82 % 0 mm
16:59 -14.2 °C -15.8 °C 34384.8 hPa WNW 20.9 km/h 20.9 km/h 82 % 0 mm
17:05 -14.3 °C -15.8 °C 34384.8 hPa WNW 20.9 km/h 23.3 km/h 83 % 0 mm
17:11 -14.4 °C -15.9 °C 34384.8 hPa WSW 10.3 km/h 12.9 km/h 83 % 0 mm
17:17 -14.5 °C -15.9 °C 34384.8 hPa WSW 10.3 km/h 15.6 km/h 84 % 0 mm
17:23 -14.6 °C -15.9 °C 34395 hPa WSW 5.1 km/h 15.6 km/h 84 % 0 mm
17:29 -14.6 °C -15.9 °C 34395 hPa West 12.7 km/h 12.9 km/h 84 % 0 mm
17:35 -14.7 °C -16.1 °C 34395 hPa West 5.1 km/h 10.3 km/h 84 % 0 mm
17:41 -14.7 °C -16 °C 34395 hPa WNW 7.6 km/h 15.6 km/h 85 % 0 mm
17:47 -14.8 °C -16.1 °C 34395 hPa WNW 10.3 km/h 12.9 km/h 85 % 0 mm
17:53 -14.8 °C -16.1 °C 34405.1 hPa West 7.6 km/h 12.9 km/h 85 % 0 mm
17:59 -14.9 °C -16.1 °C 34405.1 hPa WSW 7.6 km/h 12.9 km/h 86 % 0 mm
18:05 -14.9 °C -16.1 °C 34405.1 hPa WSW 7.6 km/h 15.6 km/h 86 % 0 mm
18:11 -14.9 °C -16.1 °C 34405.1 hPa West 5.1 km/h 10.3 km/h 86 % 0 mm
18:17 -15.1 °C -16.2 °C 34405.1 hPa West 7.6 km/h 12.9 km/h 87 % 0 mm
18:23 -15.1 °C -16.2 °C 34405.1 hPa West 2.3 km/h 12.9 km/h 86 % 0 mm
18:29 -15.1 °C -16.2 °C 34418.7 hPa WNW 7.6 km/h 12.9 km/h 87 % 0 mm
18:35 -15.1 °C -16.2 °C 34418.7 hPa WNW 7.6 km/h 10.3 km/h 86 % 0 mm
18:41 -15.1 °C -16.3 °C 34428.8 hPa WNW 7.6 km/h 10.3 km/h 86 % 0 mm
18:47 -15.2 °C -16.3 °C 34428.8 hPa WNW 5.1 km/h 7.7 km/h 86 % 0 mm
18:53 -15.2 °C -16.3 °C 34428.8 hPa Calm   7.7 km/h 87 % 0 mm
18:59 -15.3 °C -16.4 °C 34428.8 hPa West 5.1 km/h 5.1 km/h 87 % 0 mm
19:05 -15.3 °C -16.3 °C 34428.8 hPa West 2.3 km/h 7.7 km/h 88 % 0 mm
19:11 -15.4 °C -16.4 °C 34428.8 hPa West 5.1 km/h 7.7 km/h 88 % 0 mm
19:17 -15.4 °C -16.4 °C 34428.8 hPa WNW 5.1 km/h 7.7 km/h 88 % 0 mm
19:23 -15.4 °C -16.4 °C 34428.8 hPa West 10.3 km/h 10.3 km/h 88 % 0 mm
19:29 -15.4 °C -16.4 °C 34428.8 hPa West 2.3 km/h 10.3 km/h 88 % 0 mm
19:35 -15.4 °C -16.4 °C 34428.8 hPa West 5.1 km/h 7.7 km/h 88 % 0 mm
19:41 -15.4 °C -16.4 °C 34428.8 hPa West 2.3 km/h 5.1 km/h 88 % 0 mm
19:47 -15.5 °C -16.5 °C 34428.8 hPa West 5.1 km/h 10.3 km/h 88 % 0 mm
19:53 -15.6 °C -16.4 °C 34428.8 hPa West 10.3 km/h 15.6 km/h 89 % 0 mm
19:59 -15.6 °C -16.6 °C 34442.4 hPa West 5.1 km/h 12.9 km/h 88 % 0 mm
20:06 -15.6 °C -16.6 °C 34442.4 hPa West 10.3 km/h 15.6 km/h 88 % 0 mm
20:11 -15.6 °C -16.7 °C 34442.4 hPa West 12.7 km/h 15.6 km/h 87 % 0 mm
20:17 -15.6 °C -16.7 °C 34442.4 hPa West 7.6 km/h 15.6 km/h 87 % 0 mm
20:23 -15.7 °C -16.8 °C 34442.4 hPa West 10.3 km/h 15.6 km/h 87 % 0 mm
20:30 -15.7 °C -16.8 °C 34452.6 hPa West 7.6 km/h 15.6 km/h 86 % 0 mm
20:35 -15.7 °C -16.9 °C 34452.6 hPa West 7.6 km/h 12.9 km/h 85 % 0 mm
20:42 -15.7 °C -16.9 °C 34452.6 hPa West 5.1 km/h 12.9 km/h 85 % 0 mm
20:48 -15.7 °C -16.8 °C 34452.6 hPa West 7.6 km/h 10.3 km/h 86 % 0 mm
20:54 -15.7 °C -16.8 °C 34462.7 hPa West 5.1 km/h 10.3 km/h 86 % 0 mm
21:00 -15.7 °C -16.8 °C 34462.7 hPa WSW 2.3 km/h 10.3 km/h 86 % 0 mm
21:06 -15.7 °C -16.8 °C 34462.7 hPa WSW 5.1 km/h 10.3 km/h 86 % 0 mm
21:12 -15.7 °C -16.8 °C 34462.7 hPa SW 5.1 km/h 10.3 km/h 87 % 0 mm
21:18 -15.8 °C -16.8 °C 34462.7 hPa SW 12.7 km/h 12.9 km/h 88 % 0 mm
21:24 -15.8 °C -16.8 °C 34462.7 hPa West 5.1 km/h 10.3 km/h 88 % 0 mm
21:30 -15.9 °C -16.8 °C 34462.7 hPa West 5.1 km/h 15.6 km/h 89 % 0 mm
21:36 -15.9 °C -16.8 °C 34462.7 hPa West 7.6 km/h 12.9 km/h 89 % 0 mm
21:42 -16.1 °C -16.9 °C 34462.7 hPa West 7.6 km/h 10.3 km/h 89 % 0 mm
21:48 -16.1 °C -16.9 °C 34462.7 hPa West 5.1 km/h 10.3 km/h 89 % 0 mm
21:54 -16.1 °C -16.9 °C 34462.7 hPa West 5.1 km/h 15.6 km/h 89 % 0 mm
22:00 -16.1 °C -16.9 °C 34462.7 hPa WSW 10.3 km/h 12.9 km/h 89 % 0 mm
22:06 -16.1 °C -16.9 °C 34462.7 hPa WNW 7.6 km/h 15.6 km/h 89 % 0 mm
22:12 -16 °C -16.9 °C 34476.3 hPa WSW 7.6 km/h 15.6 km/h 89 % 0 mm
22:18 -16.1 °C -16.9 °C 34476.3 hPa WSW 5.1 km/h 23.3 km/h 89 % 0 mm
22:24 -16.1 °C -17.1 °C 34462.7 hPa West 10.3 km/h 15.6 km/h 88 % 0 mm
22:30 -16.2 °C -17.1 °C 34462.7 hPa West 10.3 km/h 10.3 km/h 89 % 0 mm
22:36 -16.2 °C -17.1 °C 34462.7 hPa West 7.6 km/h 12.9 km/h 89 % 0 mm
22:42 -16.2 °C -17 °C 34476.3 hPa WSW 5.1 km/h 12.9 km/h 90 % 0 mm
22:48 -16.2 °C -17.1 °C 34476.3 hPa West 5.1 km/h 7.7 km/h 89 % 0 mm
22:54 -16.2 °C -17.1 °C 34476.3 hPa West 7.6 km/h 10.3 km/h 90 % 0 mm
23:00 -16.2 °C -17 °C 34476.3 hPa WSW 7.6 km/h 10.3 km/h 90 % 0 mm
23:06 -16.2 °C -17.1 °C 34476.3 hPa WSW 2.3 km/h 10.3 km/h 89 % 0 mm
23:12 -16.2 °C -17.1 °C 34476.3 hPa WSW 5.1 km/h 7.7 km/h 89 % 0 mm
23:18 -16.1 °C -16.9 °C 34476.3 hPa SW 10.3 km/h 15.6 km/h 89 % 0 mm
23:24 -16 °C -16.9 °C 34462.7 hPa West 12.7 km/h 18.2 km/h 89 % 0 mm
23:30 -16.1 °C -16.9 °C 34476.3 hPa WSW 15.6 km/h 15.6 km/h 89 % 0 mm
23:36 -16.1 °C -16.9 °C 34476.3 hPa WSW 12.7 km/h 20.8 km/h 89 % 0 mm
23:42 -16.1 °C -16.9 °C 34476.3 hPa SW 10.3 km/h 18.2 km/h 90 % 0 mm
23:48 -16.1 °C -16.9 °C 34476.3 hPa WSW 17.9 km/h 20.8 km/h 90 % 0 mm
23:54 -16.1 °C -17 °C 34476.3 hPa WSW 20.9 km/h 20.9 km/h 89 % 0 mm
Meteo18
Compliments of Weather Underground - 4 mb

Script developed by  Jim McMurry - jmcmurry@mwt.net Adapted for the template by  Wim van der Kuil - Leuven-Template.eu

You find our weather info also at:

European Weather Network

Weather Underground

Equipment we use:

Weather-station
Davis Vue

Weather-program
Meteobridge

Weather-server
Raspberry PI 2 B+

Provider
1 and 1

Davis Vue

Meteobridge

Raspberry PI 2 B+

1 and 1